createdAt,value
2022-12-22T00:00:23.889Z,100137.59
2022-12-22T00:03:09.687Z,100151.38
2022-12-22T00:05:54.920Z,100149.72
2022-12-22T00:08:40.545Z,100153.81
2022-12-22T00:11:30.152Z,100158.38
2022-12-22T00:14:15.466Z,100157.19
2022-12-22T00:17:00.861Z,100154.34
2022-12-22T00:19:47.840Z,100158.63
2022-12-22T00:22:39.921Z,100161.06
2022-12-22T00:25:26.073Z,100167.22
2022-12-22T00:28:11.275Z,100162.34
2022-12-22T00:30:56.774Z,100157.88
2022-12-22T00:33:41.900Z,100164.34
2022-12-22T00:36:30.969Z,100157.78
2022-12-22T00:39:16.486Z,100153.38
2022-12-22T00:42:02.451Z,100152.69
2022-12-22T00:44:47.349Z,100152.41
2022-12-22T00:47:43.895Z,100133.44
2022-12-22T00:50:29.900Z,100140.38
2022-12-22T00:53:16.818Z,100128.53
2022-12-22T00:56:02.240Z,100130.09
2022-12-22T00:58:47.743Z,100132.63
2022-12-22T01:01:32.820Z,100134.41
2022-12-22T01:04:18.044Z,100126.44
2022-12-22T01:07:03.550Z,100120.03
2022-12-22T01:09:49.057Z,100125.72
2022-12-22T01:12:42.711Z,100123.25
2022-12-22T01:15:33.904Z,100121.09
2022-12-22T01:18:18.724Z,100118.34
2022-12-22T01:21:04.177Z,100118.44
2022-12-22T01:23:49.662Z,100114.69
2022-12-22T01:26:34.841Z,100115.28
2022-12-22T01:29:20.158Z,100110.66
2022-12-22T01:32:05.613Z,100089.47
2022-12-22T01:34:50.856Z,100101.50
2022-12-22T01:37:36.412Z,100104.28
2022-12-22T01:40:22.268Z,100099.97
2022-12-22T01:43:07.352Z,100100.97
2022-12-22T01:45:55.439Z,100096.94
2022-12-22T01:48:46.422Z,100096.66
2022-12-22T01:51:38.385Z,100096.06
2022-12-22T01:54:24.439Z,100088.38
2022-12-22T01:57:10.483Z,100079.72
2022-12-22T01:59:55.989Z,100064.91
2022-12-22T02:02:44.741Z,100077.06
2022-12-22T02:05:33.254Z,100080.84
2022-12-22T02:08:45.631Z,100076.09
2022-12-22T02:11:58.375Z,100085.09
2022-12-22T02:14:53.419Z,100080.31
2022-12-22T02:17:47.517Z,100078.22
2022-12-22T02:20:38.567Z,100078.25
2022-12-22T02:23:51.827Z,100076.72
2022-12-22T02:26:51.790Z,100080.72
2022-12-22T02:29:46.458Z,100064.84
2022-12-22T02:32:31.891Z,100074.69
2022-12-22T02:35:17.282Z,100085.38
2022-12-22T02:38:19.636Z,100076.78
2022-12-22T02:41:07.472Z,100073.13
2022-12-22T02:44:04.112Z,100072.25
2022-12-22T02:46:59.857Z,100067.72
2022-12-22T02:50:04.217Z,100067.16
2022-12-22T02:52:55.045Z,100073.81
2022-12-22T02:55:40.406Z,100077.69
2022-12-22T02:58:26.150Z,100084.41
2022-12-22T03:01:11.374Z,100081.75
2022-12-22T03:03:56.842Z,100076.41
2022-12-22T03:06:41.844Z,100081.66
2022-12-22T03:09:26.827Z,100070.72
2022-12-22T03:12:11.936Z,100073.81
2022-12-22T03:14:57.453Z,100073.03
2022-12-22T03:17:42.905Z,100061.00
2022-12-22T03:20:28.898Z,100065.06
2022-12-22T03:23:14.229Z,100069.13
2022-12-22T03:25:53.914Z,100065.94
2022-12-22T03:28:23.057Z,100047.31
2022-12-22T03:30:58.993Z,100063.91
2022-12-22T03:33:26.355Z,100055.50
2022-12-22T03:35:53.077Z,100061.28
2022-12-22T03:38:20.285Z,100071.94
2022-12-22T03:40:47.387Z,100069.59
2022-12-22T03:43:34.566Z,100054.09
2022-12-22T03:46:21.108Z,100062.25
2022-12-22T03:49:07.880Z,100058.03
2022-12-22T03:51:35.604Z,100062.47
2022-12-22T03:54:02.353Z,100070.91
2022-12-22T03:56:29.223Z,100068.94
2022-12-22T03:58:55.904Z,100065.81
2022-12-22T04:01:22.630Z,100068.69
2022-12-22T04:03:50.151Z,100071.50
2022-12-22T04:06:17.830Z,100073.88
2022-12-22T04:08:44.475Z,100067.81
2022-12-22T04:11:35.386Z,100076.38
2022-12-22T04:14:02.584Z,100067.75
2022-12-22T04:16:29.718Z,100054.72
2022-12-22T04:18:56.894Z,100062.28
2022-12-22T04:21:24.319Z,100042.81
2022-12-22T04:23:51.437Z,100062.47
2022-12-22T04:26:20.086Z,100064.28
2022-12-22T04:28:46.877Z,100067.38
2022-12-22T04:31:13.954Z,100045.81
2022-12-22T04:33:40.656Z,100043.22
2022-12-22T04:36:08.106Z,100063.25
2022-12-22T04:38:35.621Z,100064.91
2022-12-22T04:41:02.846Z,100065.38
2022-12-22T04:43:29.553Z,100060.34
2022-12-22T04:45:57.009Z,100064.84
2022-12-22T04:48:25.928Z,100068.41
2022-12-22T04:50:54.731Z,100056.13
2022-12-22T04:53:22.683Z,100058.00
2022-12-22T04:55:51.917Z,100060.16
2022-12-22T04:58:18.579Z,100066.66
2022-12-22T05:00:45.208Z,100064.31
2022-12-22T05:03:12.183Z,100061.00
2022-12-22T05:05:39.007Z,100058.38
2022-12-22T05:08:06.523Z,100056.84
2022-12-22T05:10:33.481Z,100057.19
2022-12-22T05:13:00.212Z,100064.69
2022-12-22T05:15:32.141Z,100061.69
2022-12-22T05:18:00.148Z,100064.19
2022-12-22T05:20:27.964Z,100070.81
2022-12-22T05:22:55.058Z,100066.91
2022-12-22T05:25:22.201Z,100068.94
2022-12-22T05:27:50.595Z,100071.66
2022-12-22T05:30:19.310Z,100076.38
2022-12-22T05:32:46.482Z,100076.84
2022-12-22T05:35:13.405Z,100074.13
2022-12-22T05:37:40.206Z,100077.56
2022-12-22T05:40:08.206Z,100074.03
2022-12-22T05:42:37.455Z,100077.94
2022-12-22T05:45:12.585Z,100075.41
2022-12-22T05:47:40.007Z,100073.88
2022-12-22T05:50:09.606Z,100083.69
2022-12-22T05:52:36.582Z,100069.97
2022-12-22T05:55:04.333Z,100060.41
2022-12-22T05:57:31.295Z,100081.59
2022-12-22T05:59:57.972Z,100089.75
2022-12-22T06:02:25.020Z,100094.25
2022-12-22T06:04:52.074Z,100091.97
2022-12-22T06:07:18.843Z,100092.69
2022-12-22T06:09:45.649Z,100052.78
2022-12-22T06:12:12.345Z,100099.06
2022-12-22T06:14:39.104Z,100092.69
2022-12-22T06:17:05.815Z,100094.03
2022-12-22T06:19:32.458Z,100097.88
2022-12-22T06:21:59.180Z,100107.84
2022-12-22T06:24:26.083Z,100114.94
2022-12-22T06:26:52.805Z,100114.13
2022-12-22T06:29:19.548Z,100124.38
2022-12-22T06:31:46.358Z,100119.41
2022-12-22T06:34:13.579Z,100122.19
2022-12-22T06:36:40.355Z,100119.59
2022-12-22T06:39:07.071Z,100125.50
2022-12-22T06:41:52.549Z,100126.69
2022-12-22T06:44:19.234Z,100128.19
2022-12-22T06:46:46.180Z,100128.78
2022-12-22T06:49:12.935Z,100118.94
2022-12-22T06:51:39.605Z,100128.78
2022-12-22T06:54:06.359Z,100128.13
2022-12-22T06:56:33.094Z,100125.88
2022-12-22T06:58:59.773Z,100118.16
2022-12-22T07:01:26.604Z,100117.03
2022-12-22T07:03:54.700Z,100124.63
2022-12-22T07:06:21.593Z,100122.91
2022-12-22T07:08:49.242Z,100132.41
2022-12-22T07:11:16.630Z,100132.66
2022-12-22T07:13:44.128Z,100115.66
2022-12-22T07:16:11.853Z,100138.16
2022-12-22T07:18:41.172Z,100145.88
2022-12-22T07:21:10.910Z,100148.25
2022-12-22T07:23:38.318Z,100142.13
2022-12-22T07:26:06.329Z,100165.63
2022-12-22T07:28:34.464Z,100156.22
2022-12-22T07:31:01.256Z,100164.72
2022-12-22T07:33:28.126Z,100169.16
2022-12-22T07:36:06.945Z,100167.28
2022-12-22T07:38:35.938Z,100156.25
2022-12-22T07:41:05.476Z,100168.06
2022-12-22T07:43:32.583Z,100159.88
2022-12-22T07:45:59.258Z,100165.03
2022-12-22T07:48:44.502Z,100156.06
2022-12-22T07:51:11.126Z,100166.25
2022-12-22T07:53:40.129Z,100166.63
2022-12-22T07:56:07.232Z,100170.38
2022-12-22T07:58:33.969Z,100162.38
2022-12-22T08:01:01.360Z,100140.59
2022-12-22T08:03:28.322Z,100172.16
2022-12-22T08:05:55.138Z,100180.50
2022-12-22T08:08:21.822Z,100149.22
2022-12-22T08:10:48.530Z,100178.31
2022-12-22T08:13:15.371Z,100174.66
2022-12-22T08:15:42.148Z,100169.53
2022-12-22T08:18:08.929Z,100179.66
2022-12-22T08:20:35.689Z,100178.72
2022-12-22T08:23:02.339Z,100175.66
2022-12-22T08:25:30.776Z,100165.00
2022-12-22T08:27:58.363Z,100164.50
2022-12-22T08:30:25.160Z,100165.94
2022-12-22T08:32:52.083Z,100153.94
2022-12-22T08:35:19.045Z,100154.81
2022-12-22T08:37:47.356Z,100151.28
2022-12-22T08:40:22.681Z,100156.88
2022-12-22T08:42:52.354Z,100150.13
2022-12-22T08:45:19.086Z,100147.19
2022-12-22T08:47:45.746Z,100140.31
2022-12-22T08:50:12.451Z,100142.53
2022-12-22T08:52:39.179Z,100137.03
2022-12-22T08:55:06.971Z,100128.63
2022-12-22T08:57:33.640Z,100122.47
2022-12-22T09:00:00.383Z,100120.59
2022-12-22T09:02:27.237Z,100122.22
2022-12-22T09:04:53.924Z,100122.88
2022-12-22T09:07:20.622Z,100097.31
2022-12-22T09:09:47.355Z,100108.38
2022-12-22T09:12:14.310Z,100100.19
2022-12-22T09:14:41.009Z,100096.34
2022-12-22T09:17:07.706Z,100102.34
2022-12-22T09:19:34.748Z,100102.88
2022-12-22T09:22:01.363Z,100085.03
2022-12-22T09:24:28.030Z,100089.16
2022-12-22T09:26:54.725Z,100077.19
2022-12-22T09:29:21.408Z,100087.34
2022-12-22T09:31:48.123Z,100080.19
2022-12-22T09:34:17.949Z,100080.81
2022-12-22T09:36:46.019Z,100060.06
2022-12-22T09:39:17.015Z,100079.06
2022-12-22T09:41:46.069Z,100075.28
2022-12-22T09:44:25.899Z,100075.94
2022-12-22T09:46:54.801Z,100065.91
2022-12-22T09:49:23.027Z,100070.84
2022-12-22T09:51:56.613Z,100059.00
2022-12-22T09:54:24.905Z,100062.94
2022-12-22T09:56:51.949Z,100062.91
2022-12-22T09:59:20.897Z,100058.66
2022-12-22T10:01:59.470Z,100056.00
2022-12-22T10:05:03.849Z,100050.06
2022-12-22T10:07:40.742Z,100061.00
2022-12-22T10:10:28.493Z,100062.88
2022-12-22T10:12:57.773Z,100048.91
2022-12-22T10:15:25.629Z,99972.34
2022-12-22T10:18:07.948Z,100033.63
2022-12-22T10:20:34.953Z,100034.56
2022-12-22T10:23:23.228Z,100033.94
2022-12-22T10:28:59.632Z,100014.28
2022-12-22T10:31:31.730Z,100007.28
2022-12-22T10:34:13.177Z,100010.69
2022-12-22T10:36:41.800Z,100001.00
2022-12-22T10:39:11.155Z,100003.94
2022-12-22T10:41:47.764Z,99990.91
2022-12-22T10:44:17.489Z,99990.59
2022-12-22T10:46:50.456Z,99989.38
2022-12-22T10:52:30.028Z,99973.47
2022-12-22T10:55:23.431Z,99982.75
2022-12-22T10:57:50.820Z,99979.78
2022-12-22T11:00:26.742Z,99984.28
2022-12-22T11:03:02.212Z,99980.69
2022-12-22T11:05:30.041Z,99968.31
2022-12-22T11:08:00.962Z,99959.47
2022-12-22T11:10:39.910Z,99957.94
2022-12-22T11:13:35.767Z,99968.44
2022-12-22T11:16:27.689Z,99955.09
2022-12-22T11:19:14.456Z,99951.31
2022-12-22T11:22:00.989Z,99950.47
2022-12-22T11:24:51.761Z,99948.13
2022-12-22T11:28:05.146Z,99956.59
2022-12-22T11:30:44.943Z,99958.38
2022-12-22T11:33:52.150Z,99953.84
2022-12-22T11:36:25.011Z,99948.56
2022-12-22T11:39:04.389Z,99945.91
2022-12-22T11:41:49.566Z,99946.22
2022-12-22T11:44:29.170Z,99944.94
2022-12-22T11:47:17.406Z,99934.56
2022-12-22T11:51:02.031Z,99935.47
2022-12-22T11:53:07.611Z,99928.09
2022-12-22T11:55:43.379Z,99935.00
2022-12-22T11:58:22.084Z,99934.44
2022-12-22T12:01:19.003Z,99932.59
2022-12-22T12:04:19.955Z,99926.81
2022-12-22T12:07:19.299Z,99929.50
2022-12-22T12:10:15.123Z,99927.06
2022-12-22T12:13:09.239Z,99937.72
2022-12-22T12:15:50.911Z,99925.59
2022-12-22T12:18:28.708Z,99933.63
2022-12-22T12:21:23.000Z,99928.50
2022-12-22T12:23:55.371Z,99924.66
2022-12-22T12:26:32.672Z,99918.88
2022-12-22T12:29:14.357Z,99928.31
2022-12-22T12:32:05.746Z,99907.09
2022-12-22T12:34:37.633Z,99917.50
2022-12-22T12:37:26.363Z,99916.56
2022-12-22T12:40:32.252Z,99906.31
2022-12-22T12:43:00.456Z,99910.63
2022-12-22T12:45:47.737Z,99906.97
2022-12-22T12:48:20.358Z,99908.34
2022-12-22T12:50:51.281Z,99904.59
2022-12-22T12:53:19.694Z,99912.00
2022-12-22T12:55:53.419Z,99909.88
2022-12-22T12:58:35.510Z,99904.19
2022-12-22T13:01:10.550Z,99900.28
2022-12-22T13:06:59.698Z,99896.13
2022-12-22T13:09:49.897Z,99870.94
2022-12-22T13:12:39.778Z,99890.53
2022-12-22T13:15:27.681Z,99891.03
2022-12-22T13:17:54.571Z,99877.03
2022-12-22T13:20:29.885Z,99888.38
2022-12-22T13:23:03.450Z,99886.38
2022-12-22T13:26:02.510Z,99887.84
2022-12-22T13:28:29.999Z,99886.44
2022-12-22T13:31:04.082Z,99884.44
2022-12-22T13:33:37.172Z,99886.56
2022-12-22T13:36:06.476Z,99887.50
2022-12-22T13:38:35.889Z,99880.81
2022-12-22T13:41:21.390Z,99879.94
2022-12-22T13:43:56.721Z,99873.22
2022-12-22T13:46:23.809Z,99876.66
2022-12-22T13:48:53.262Z,99849.88
2022-12-22T13:51:26.929Z,99869.09
2022-12-22T13:54:11.179Z,99879.75
2022-12-22T13:56:46.200Z,99876.50
2022-12-22T13:59:21.811Z,99875.53
2022-12-22T14:01:56.714Z,99875.19
2022-12-22T14:04:23.513Z,99867.41
2022-12-22T14:06:50.224Z,99858.16
2022-12-22T14:09:18.380Z,99853.50
2022-12-22T14:11:53.283Z,99852.59
2022-12-22T14:14:24.740Z,99857.31
2022-12-22T14:16:53.155Z,99858.53
2022-12-22T14:19:21.830Z,99827.91
2022-12-22T14:21:58.790Z,99849.06
2022-12-22T14:24:32.063Z,99847.59
2022-12-22T14:27:02.318Z,99848.63
2022-12-22T14:29:31.148Z,99847.34
2022-12-22T14:32:02.105Z,99846.47
2022-12-22T14:34:31.247Z,99843.16
2022-12-22T14:36:58.839Z,99844.16
2022-12-22T14:39:27.923Z,99842.44
2022-12-22T14:41:58.258Z,99850.25
2022-12-22T14:44:29.275Z,99848.28
2022-12-22T14:47:20.343Z,99842.75
2022-12-22T14:49:53.987Z,99854.00
2022-12-22T14:52:51.335Z,99847.78
2022-12-22T14:55:33.653Z,99828.59
2022-12-22T14:58:11.696Z,99840.00
2022-12-22T15:00:44.119Z,99848.69
2022-12-22T15:03:40.480Z,99846.50
2022-12-22T15:06:27.039Z,99841.00
2022-12-22T15:09:11.932Z,99845.59
2022-12-22T15:11:51.623Z,99845.97
2022-12-22T15:14:22.055Z,99843.69
2022-12-22T15:16:49.764Z,99855.28
2022-12-22T15:19:19.185Z,99834.03
2022-12-22T15:21:45.861Z,99849.91
2022-12-22T15:24:15.603Z,99847.53
2022-12-22T15:26:43.467Z,99842.31
2022-12-22T15:29:10.520Z,99845.31
2022-12-22T15:31:38.509Z,99848.41
2022-12-22T15:34:12.296Z,99844.81
2022-12-22T15:36:38.975Z,99841.84
2022-12-22T15:39:12.843Z,99839.53
2022-12-22T15:41:39.656Z,99843.63
2022-12-22T15:44:06.276Z,99843.09
2022-12-22T15:46:33.495Z,99840.59
2022-12-22T15:49:00.791Z,99848.63
2022-12-22T15:51:29.810Z,99852.00
2022-12-22T15:53:58.597Z,99854.09
2022-12-22T15:56:27.237Z,99860.44
2022-12-22T15:58:54.281Z,99861.47
2022-12-22T16:01:20.990Z,99850.78
2022-12-22T16:03:47.828Z,99856.94
2022-12-22T16:06:17.200Z,99862.47
2022-12-22T16:08:49.862Z,99868.84
2022-12-22T16:11:18.172Z,99868.66
2022-12-22T16:13:46.396Z,99875.16
2022-12-22T16:16:13.210Z,99865.47
2022-12-22T16:18:39.962Z,99855.31
2022-12-22T16:21:25.401Z,99847.03
2022-12-22T16:23:52.157Z,99861.13
2022-12-22T16:26:20.723Z,99859.00
2022-12-22T16:28:47.603Z,99857.47
2022-12-22T16:31:25.209Z,99858.13
2022-12-22T16:33:52.135Z,99852.38
2022-12-22T16:36:18.970Z,99842.50
2022-12-22T16:38:47.623Z,99839.31
2022-12-22T16:41:23.933Z,99847.59
2022-12-22T16:46:39.201Z,99827.44
2022-12-22T16:49:08.980Z,99844.50
2022-12-22T16:51:38.922Z,99841.97
2022-12-22T16:54:05.671Z,99852.31
2022-12-22T16:56:32.894Z,99847.88
2022-12-22T16:59:00.983Z,99850.91
2022-12-22T17:01:46.011Z,99851.69
2022-12-22T17:04:23.250Z,99855.91
2022-12-22T17:06:52.023Z,99864.28
2022-12-22T17:09:29.615Z,99864.00
2022-12-22T17:11:56.326Z,99863.56
2022-12-22T17:14:30.523Z,99850.69
2022-12-22T17:16:57.557Z,99855.34
2022-12-22T17:19:24.202Z,99858.47
2022-12-22T17:21:53.458Z,99861.09
2022-12-22T17:24:27.877Z,99860.09
2022-12-22T17:26:58.034Z,99864.06
2022-12-22T17:29:25.730Z,99855.81
2022-12-22T17:31:56.626Z,99857.91
2022-12-22T17:34:24.289Z,99853.78
2022-12-22T17:36:51.512Z,99848.47
2022-12-22T17:39:22.666Z,99858.81
2022-12-22T17:41:56.356Z,99858.56
2022-12-22T17:44:26.115Z,99854.75
2022-12-22T17:46:53.176Z,99854.19
2022-12-22T17:49:22.469Z,99852.66
2022-12-22T17:51:49.914Z,99843.59
2022-12-22T17:54:24.997Z,99841.47
2022-12-22T17:56:54.173Z,99842.63
2022-12-22T17:59:20.889Z,99845.94
2022-12-22T18:01:47.635Z,99841.84
2022-12-22T18:04:14.441Z,99847.28
2022-12-22T18:06:42.139Z,99835.03
2022-12-22T18:09:18.816Z,99837.31
2022-12-22T18:11:46.268Z,99829.34
2022-12-22T18:14:14.589Z,99827.59
2022-12-22T18:16:42.553Z,99830.13
2022-12-22T18:19:09.394Z,99832.75
2022-12-22T18:21:36.140Z,99834.63
2022-12-22T18:24:03.822Z,99824.88
2022-12-22T18:26:31.221Z,99828.19
2022-12-22T18:28:58.419Z,99838.72
2022-12-22T18:31:25.408Z,99824.63
2022-12-22T18:33:52.720Z,99826.28
2022-12-22T18:36:30.764Z,99831.06
2022-12-22T18:38:58.934Z,99815.75
2022-12-22T18:41:27.163Z,99799.66
2022-12-22T18:43:54.024Z,99784.47
2022-12-22T18:46:21.453Z,99787.44
2022-12-22T18:48:48.733Z,99807.09
2022-12-22T18:51:21.450Z,99799.97
2022-12-22T18:53:50.036Z,99803.22
2022-12-22T18:56:17.145Z,99803.22
2022-12-22T18:58:43.858Z,99798.78
2022-12-22T19:01:29.292Z,99809.31
2022-12-22T19:03:58.944Z,99811.59
2022-12-22T19:06:25.606Z,99811.22
2022-12-22T19:08:52.309Z,99800.59
2022-12-22T19:11:24.837Z,99810.94
2022-12-22T19:13:52.614Z,99807.84
2022-12-22T19:16:25.137Z,99807.03
2022-12-22T19:18:51.904Z,99795.91
2022-12-22T19:21:19.600Z,99793.88
2022-12-22T19:23:46.746Z,99799.44
2022-12-22T19:26:24.346Z,99797.81
2022-12-22T19:28:57.459Z,99794.47
2022-12-22T19:31:26.729Z,99799.59
2022-12-22T19:33:55.031Z,99797.13
2022-12-22T19:36:27.498Z,99798.63
2022-12-22T19:39:03.514Z,99799.13
2022-12-22T19:41:44.772Z,99804.56
2022-12-22T19:44:27.415Z,99772.06
2022-12-22T19:46:55.715Z,99798.69
2022-12-22T19:49:25.066Z,99807.91
2022-12-22T19:51:51.769Z,99812.56
2022-12-22T19:54:19.836Z,99807.28
2022-12-22T19:56:50.476Z,99799.75
2022-12-22T19:59:29.801Z,99807.78
2022-12-22T20:01:58.586Z,99817.59
2022-12-22T20:04:25.686Z,99815.53
2022-12-22T20:06:52.311Z,99812.78
2022-12-22T20:09:19.027Z,99811.28
2022-12-22T20:11:46.100Z,99811.56
2022-12-22T20:14:20.506Z,99793.38
2022-12-22T20:16:47.310Z,99802.66
2022-12-22T20:19:15.060Z,99805.09
2022-12-22T20:21:43.499Z,99794.59
2022-12-22T20:24:19.625Z,99797.00
2022-12-22T20:26:51.783Z,99787.75
2022-12-22T20:29:20.369Z,99785.59
2022-12-22T20:31:47.107Z,99793.84
2022-12-22T20:34:13.865Z,99796.84
2022-12-22T20:36:40.964Z,99793.63
2022-12-22T20:39:12.592Z,99794.66
2022-12-22T20:41:39.278Z,99792.63
2022-12-22T20:44:06.079Z,99798.03
2022-12-22T20:46:33.209Z,99802.47
2022-12-22T20:49:02.373Z,99801.19
2022-12-22T20:51:33.598Z,99801.41
2022-12-22T20:54:01.280Z,99801.31
2022-12-22T20:56:34.138Z,99797.28
2022-12-22T20:59:07.524Z,99787.16
2022-12-22T21:01:34.343Z,99790.47
2022-12-22T21:04:01.085Z,99789.13
2022-12-22T21:06:30.452Z,99791.88
2022-12-22T21:08:58.852Z,99798.91
2022-12-22T21:11:26.525Z,99796.22
2022-12-22T21:13:54.229Z,99798.59
2022-12-22T21:16:24.059Z,99798.84
2022-12-22T21:18:51.087Z,99784.78
2022-12-22T21:21:17.876Z,99797.03
2022-12-22T21:23:44.514Z,99797.53
2022-12-22T21:26:43.070Z,99800.22
2022-12-22T21:29:18.552Z,99783.88
2022-12-22T21:31:45.227Z,99800.75
2022-12-22T21:34:11.901Z,99792.88
2022-12-22T21:36:40.046Z,99781.69
2022-12-22T21:39:16.537Z,99785.75
2022-12-22T21:42:01.829Z,99789.47
2022-12-22T21:44:30.089Z,99796.47
2022-12-22T21:46:57.734Z,99790.91
2022-12-22T21:49:26.785Z,99784.78
2022-12-22T21:51:54.478Z,99787.19
2022-12-22T21:54:23.930Z,99782.97
2022-12-22T21:56:51.506Z,99774.59
2022-12-22T21:59:18.816Z,99774.53
2022-12-22T22:01:46.753Z,99772.59
2022-12-22T22:04:14.090Z,99774.53
2022-12-22T22:06:40.836Z,99778.56
2022-12-22T22:09:07.687Z,99770.28
2022-12-22T22:11:54.966Z,99752.78
2022-12-22T22:14:22.196Z,99745.59
2022-12-22T22:16:49.153Z,99763.03
2022-12-22T22:19:17.872Z,99755.09
2022-12-22T22:21:47.744Z,99762.34
2022-12-22T22:24:14.543Z,99763.44
2022-12-22T22:26:41.346Z,99763.22
2022-12-22T22:29:07.971Z,99757.84
2022-12-22T22:31:34.697Z,99756.47
2022-12-22T22:34:01.464Z,99756.59
2022-12-22T22:36:28.083Z,99742.22
2022-12-22T22:38:54.753Z,99757.81
2022-12-22T22:41:21.461Z,99750.28
2022-12-22T22:43:48.182Z,99739.84
2022-12-22T22:46:14.842Z,99740.50
2022-12-22T22:48:41.537Z,99740.31
2022-12-22T22:51:10.614Z,99754.13
2022-12-22T22:53:37.371Z,99747.09
2022-12-22T22:56:04.371Z,99763.91
2022-12-22T22:58:31.485Z,99754.53
2022-12-22T23:01:06.210Z,99756.13
2022-12-22T23:03:33.124Z,99672.91
2022-12-22T23:06:08.265Z,99757.03
2022-12-22T23:08:35.593Z,99750.66
2022-12-22T23:11:03.454Z,99732.09
2022-12-22T23:13:30.897Z,99749.91
2022-12-22T23:15:59.997Z,99747.81
2022-12-22T23:18:27.778Z,99743.34
2022-12-22T23:20:57.358Z,99741.31
2022-12-22T23:23:23.996Z,99745.06
2022-12-22T23:25:51.128Z,99742.88
2022-12-22T23:28:18.505Z,99731.03
2022-12-22T23:30:48.212Z,99729.91
2022-12-22T23:33:15.286Z,99724.16
2022-12-22T23:35:42.816Z,99721.66
2022-12-22T23:38:10.026Z,99720.97
2022-12-22T23:40:54.732Z,99724.16
2022-12-22T23:43:21.861Z,99698.19
2022-12-22T23:45:48.724Z,99716.19
2022-12-22T23:48:15.348Z,99713.72
2022-12-22T23:50:42.027Z,99710.13
2022-12-22T23:53:08.705Z,99714.50
2022-12-22T23:55:35.418Z,99714.16
2022-12-22T23:58:02.114Z,99714.56
